Four Corners, Washington
Current Conditions -  °F | °C
As of 2:53 PM on Monday 20 Oct 2014 (Local Time) from KRNT Reporting Station
Haze Haze  
Wind Chill: 60°   Ceiling: Unl
Heat Index: 60°   Visibility: 6mi
Dew Point: 57°   Wind: 3mph
Humidity: 90%   Direction: 170°S
Pressure: 29.75"   Gusts: NA
Location:  47.4066°N, 122.018°W
Report Text: KRNT 202153Z 17003KT 6SM BR SCT075 16/14 A2975 RMK AO2 RAE02 SLP080 P0001 T01560139
Loading
Personal Weather Stations






























Interactive Weather Map
Tropical Storm Tracking
New forecast layout! Learn more

10-Day Weather Forecast

Advertisements
Track Severe Weather on mobile